Time;durP1;ratioP1;P1;durP2;ratioP2;P2;SDS_P1;SDS_P2;PMS_P1;PMS_P2;Temp;Humidity;BMP_temperature;BMP_pressure;BME280_temperature;BME280_humidity;BME280_pressure;Samples;Min_cycle;Max_cycle;Signal;HPM_P1;HPM_P2
2023/04/14 00:00:35;;;;;;;48.92;9.15;;;15.50;99.90;;;;;;4900688;29;20036;-92
2023/04/14 00:03:02;;;;;;;39.17;9.88;;;15.50;99.90;;;;;;4916643;29;20040;-92
2023/04/14 00:05:32;;;;;;;42.13;9.32;;;15.40;99.90;;;;;;4900872;29;20032;-92
2023/04/14 00:08:00;;;;;;;50.92;9.32;;;15.50;99.90;;;;;;4900900;29;20064;-92
2023/04/14 00:10:27;;;;;;;48.53;8.32;;;15.50;99.90;;;;;;4900677;29;20494;-95
2023/04/14 00:12:56;;;;;;;50.63;8.45;;;15.40;99.90;;;;;;4900545;29;20040;-93
2023/04/14 00:15:25;;;;;;;46.20;9.52;;;15.40;99.90;;;;;;4916467;29;20122;-92
2023/04/14 00:17:51;;;;;;;49.33;9.20;;;15.40;99.90;;;;;;4904083;29;20552;-91
2023/04/14 00:20:21;;;;;;;55.03;10.57;;;15.40;99.90;;;;;;4916538;29;20616;-92
2023/04/14 00:22:50;;;;;;;47.80;9.73;;;15.40;99.90;;;;;;4900689;29;20148;-93
2023/04/14 00:25:17;;;;;;;36.45;8.00;;;15.40;99.90;;;;;;4900596;29;20064;-93
2023/04/14 00:27:46;;;;;;;50.85;9.60;;;15.30;99.90;;;;;;4900527;29;20041;-91
2023/04/14 00:30:15;;;;;;;45.47;8.77;;;15.40;99.90;;;;;;4915900;29;20060;-92
2023/04/14 00:32:41;;;;;;;49.08;10.02;;;15.30;99.90;;;;;;4907366;29;20036;-93
2023/04/14 00:35:08;;;;;;;43.10;9.82;;;15.30;99.90;;;;;;4922451;29;20473;-92
2023/04/14 00:37:38;;;;;;;40.47;9.48;;;15.30;99.90;;;;;;4923993;29;20023;-92
2023/04/14 00:40:09;;;;;;;53.53;10.07;;;15.30;99.90;;;;;;4923695;29;20170;-92
2023/04/14 00:42:43;;;;;;;44.03;9.63;;;15.30;99.90;;;;;;4939737;29;20370;-92
2023/04/14 00:45:11;;;;;;;44.90;10.13;;;15.20;99.90;;;;;;4939609;29;20039;-92
2023/04/14 00:47:41;;;;;;;47.70;8.88;;;15.20;99.90;;;;;;4939907;29;20059;-91
2023/04/14 00:50:09;;;;;;;50.10;9.75;;;15.20;99.90;;;;;;4939004;29;20055;-92
2023/04/14 00:52:37;;;;;;;45.35;9.10;;;15.20;99.90;;;;;;4939313;29;20032;-91
2023/04/14 00:55:05;;;;;;;35.92;8.73;;;15.20;99.90;;;;;;4939481;29;20480;-92
2023/04/14 00:57:32;;;;;;;44.85;9.27;;;15.20;99.90;;;;;;4939858;29;20384;-92
2023/04/14 01:00:00;;;;;;;44.08;9.50;;;15.20;99.90;;;;;;4939504;29;20028;-91
2023/04/14 01:02:27;;;;;;;50.83;8.75;;;15.20;99.90;;;;;;4939103;29;20031;-92
2023/04/14 01:04:53;;;;;;;45.55;8.85;;;15.20;99.90;;;;;;4939043;29;20114;-93
2023/04/14 01:07:24;;;;;;;37.65;9.82;;;15.20;99.90;;;;;;4938970;29;20036;-93
2023/04/14 01:09:52;;;;;;;47.83;8.80;;;15.30;99.90;;;;;;4938751;29;20106;-94
2023/04/14 01:12:52;;;;;;;28.70;8.38;;;15.20;99.90;;;;;;4938972;29;20028;-92
2023/04/14 01:15:47;;;;;;;42.15;9.68;;;15.20;99.90;;;;;;4939248;29;20032;-93
2023/04/14 01:18:40;;;;;;;53.17;10.45;;;15.20;99.90;;;;;;4939848;29;20043;-92
2023/04/14 01:21:16;;;;;;;42.30;9.95;;;15.20;99.90;;;;;;4938786;29;20036;-93
2023/04/14 01:24:26;;;;;;;40.42;9.38;;;15.20;99.90;;;;;;4938700;29;20126;-91
2023/04/14 01:27:15;;;;;;;39.28;9.25;;;15.10;99.90;;;;;;4938631;29;20036;-92
2023/04/14 01:30:08;;;;;;;40.30;9.52;;;15.10;99.90;;;;;;4938599;29;20126;-92
2023/04/14 01:32:42;;;;;;;45.33;10.48;;;15.10;99.90;;;;;;4938372;29;20090;-93
2023/04/14 01:35:23;;;;;;;41.03;9.97;;;15.10;99.90;;;;;;4922933;29;20083;-92
2023/04/14 01:37:56;;;;;;;39.42;10.32;;;15.00;99.90;;;;;;4923859;29;20650;-93
2023/04/14 01:40:27;;;;;;;42.80;9.02;;;15.00;99.90;;;;;;4923057;29;20027;-92
2023/04/14 01:43:01;;;;;;;36.47;8.93;;;15.00;99.90;;;;;;4922412;29;20035;-91
2023/04/14 01:45:34;;;;;;;36.75;9.80;;;15.00;99.90;;;;;;4922474;29;20036;-94
2023/04/14 01:48:04;;;;;;;33.45;8.57;;;15.00;99.90;;;;;;4925073;29;20024;-92
2023/04/14 01:50:34;;;;;;;38.28;7.32;;;15.00;99.90;;;;;;4934968;29;20319;-95
2023/04/14 01:53:05;;;;;;;27.13;7.07;;;14.90;99.90;;;;;;4923045;29;20039;-92
2023/04/14 01:55:36;;;;;;;21.80;6.00;;;14.80;99.90;;;;;;4938376;29;20126;-92
2023/04/14 01:58:06;;;;;;;26.13;6.22;;;14.70;99.90;;;;;;4919256;29;20029;-92
2023/04/14 02:00:37;;;;;;;19.35;6.07;;;14.60;99.90;;;;;;4935214;29;20024;-91
2023/04/14 02:03:05;;;;;;;21.15;6.03;;;14.50;99.90;;;;;;4935033;29;20056;-92
2023/04/14 02:05:39;;;;;;;20.20;6.68;;;14.50;99.90;;;;;;4935172;29;20536;-93
2023/04/14 02:08:15;;;;;;;16.83;6.88;;;14.50;99.90;;;;;;4935680;29;20029;-93
2023/04/14 02:10:50;;;;;;;15.90;7.32;;;14.50;99.90;;;;;;4935250;29;20032;-93
2023/04/14 02:13:23;;;;;;;10.60;7.50;;;14.40;99.90;;;;;;4935136;29;20063;-93
2023/04/14 02:15:52;;;;;;;11.55;7.40;;;14.50;99.90;;;;;;4934569;29;20063;-92
2023/04/14 02:18:22;;;;;;;10.48;7.38;;;14.40;99.90;;;;;;4935057;29;20036;-91
2023/04/14 02:20:51;;;;;;;12.05;7.72;;;14.40;99.90;;;;;;4934920;29;20063;-92
2023/04/14 02:23:18;;;;;;;17.77;8.40;;;14.40;99.90;;;;;;4934876;29;20032;-94
2023/04/14 02:26:11;;;;;;;18.40;8.15;;;14.40;99.90;;;;;;4934294;29;20056;-92
2023/04/14 02:29:05;;;;;;;19.77;7.80;;;14.30;99.90;;;;;;4865329;29;20452;-92
2023/04/14 02:31:39;;;;;;;14.10;7.47;;;14.30;99.90;;;;;;4864871;29;20445;-92
2023/04/14 02:34:14;;;;;;;15.85;7.22;;;14.20;99.90;;;;;;4865431;29;20509;-93
2023/04/14 02:36:52;;;;;;;14.60;6.80;;;14.10;99.90;;;;;;4864789;29;20029;-94
2023/04/14 02:39:37;;;;;;;11.93;6.00;;;14.00;99.90;;;;;;4865046;29;20514;-92
2023/04/14 02:42:14;;;;;;;21.90;5.78;;;13.90;99.90;;;;;;4864711;29;20471;-92
2023/04/14 02:44:57;;;;;;;13.85;5.30;;;13.90;99.90;;;;;;4864212;29;20044;-93
2023/04/14 02:47:32;;;;;;;17.67;6.00;;;13.80;99.90;;;;;;4864345;29;20060;-95
2023/04/14 02:50:01;;;;;;;13.00;4.45;;;13.80;99.90;;;;;;4864313;29;20128;-93
2023/04/14 02:52:31;;;;;;;15.93;4.80;;;13.60;99.90;;;;;;4864708;29;20411;-92
2023/04/14 02:55:02;;;;;;;13.07;4.07;;;13.50;99.90;;;;;;4864870;29;20063;-93
2023/04/14 02:57:30;;;;;;;12.75;4.55;;;13.40;99.90;;;;;;4864008;29;20057;-91
2023/04/14 02:59:59;;;;;;;13.30;4.72;;;13.30;99.90;;;;;;4864576;29;20479;-92
2023/04/14 03:02:27;;;;;;;10.57;4.13;;;13.10;99.90;;;;;;4864251;29;20028;-92
2023/04/14 03:05:03;;;;;;;9.07;4.13;;;13.10;99.90;;;;;;4875886;29;20098;-94
2023/04/14 03:07:56;;;;;;;14.40;4.20;;;13.00;99.90;;;;;;4929361;29;20055;-91
2023/04/14 03:10:23;;;;;;;11.77;3.90;;;12.90;99.90;;;;;;4933963;29;20120;-92
2023/04/14 03:12:52;;;;;;;13.13;4.20;;;12.80;99.90;;;;;;4933705;29;20027;-92
2023/04/14 03:15:23;;;;;;;10.30;3.60;;;12.80;99.90;;;;;;4933644;29;20036;-93
2023/04/14 03:17:56;;;;;;;11.65;3.80;;;12.70;99.90;;;;;;4933464;29;20030;-91
2023/04/14 03:20:24;;;;;;;;;;;12.70;99.90;;;;;;4933685;29;20390;-92
2023/04/14 03:22:59;;;;;;;9.35;3.00;;;12.60;99.90;;;;;;4933779;29;20424;-93
2023/04/14 03:25:31;;;;;;;10.55;3.70;;;12.60;99.90;;;;;;4933176;29;20043;-92
2023/04/14 03:28:03;;;;;;;11.95;3.45;;;12.50;99.90;;;;;;4933636;29;20032;-92
2023/04/14 03:30:33;;;;;;;8.70;3.15;;;12.50;99.90;;;;;;4933567;29;20035;-93
2023/04/14 03:33:06;;;;;;;10.70;3.30;;;12.50;99.90;;;;;;4933208;29;20091;-93
2023/04/14 03:35:35;;;;;;;10.85;2.95;;;12.40;99.90;;;;;;4933559;29;20103;-93
2023/04/14 03:38:07;;;;;;;5.30;2.60;;;12.40;99.90;;;;;;4933487;29;20024;-92
2023/04/14 03:40:39;;;;;;;8.82;2.83;;;12.40;99.90;;;;;;4933203;29;20032;-92
2023/04/14 03:43:11;;;;;;;13.20;3.30;;;12.40;99.90;;;;;;4933177;29;20031;-93
2023/04/14 03:45:40;;;;;;;15.82;2.90;;;12.40;99.90;;;;;;4933027;29;20078;-92
2023/04/14 03:48:11;;;;;;;9.10;3.05;;;12.30;99.90;;;;;;4933481;29;20359;-93
2023/04/14 03:50:45;;;;;;;7.03;2.33;;;12.30;99.90;;;;;;4933032;29;20127;-91
2023/04/14 03:53:15;;;;;;;18.23;2.83;;;12.10;99.90;;;;;;4932792;29;20024;-91
2023/04/14 03:55:45;;;;;;;10.15;3.08;;;12.10;99.90;;;;;;4933169;29;20047;-91
2023/04/14 03:58:15;;;;;;;16.55;2.67;;;12.10;99.90;;;;;;4934789;29;20492;-91
2023/04/14 04:00:44;;;;;;;9.95;2.65;;;12.00;99.90;;;;;;4933780;29;20028;-93
2023/04/14 04:03:13;;;;;;;10.82;2.72;;;12.00;99.90;;;;;;4932865;29;20028;-93
2023/04/14 04:05:44;;;;;;;7.55;2.58;;;12.00;99.90;;;;;;4932742;29;20123;-91
2023/04/14 04:08:11;;;;;;;11.43;2.83;;;11.90;99.90;;;;;;4932895;29;20051;-92
2023/04/14 04:10:38;;;;;;;8.35;3.10;;;11.90;99.90;;;;;;5003813;23;20069;-92
2023/04/14 04:13:16;;;;;;;13.80;3.60;;;11.80;99.90;;;;;;4962937;28;20121;-93
2023/04/14 04:15:48;;;;;;;9.75;3.63;;;11.70;99.90;;;;;;4946503;28;20103;-92
2023/04/14 04:18:17;;;;;;;8.07;3.70;;;11.70;99.90;;;;;;4962007;28;20034;-92
2023/04/14 04:20:46;;;;;;;7.35;3.47;;;11.70;99.90;;;;;;4946702;28;20046;-95
2023/04/14 04:23:17;;;;;;;9.95;3.40;;;11.70;99.90;;;;;;5038677;23;20051;-93
2023/04/14 04:28:14;;;;;;;7.63;2.70;;;11.50;99.90;;;;;;4929912;29;19923;-90
2023/04/14 04:30:44;;;;;;;8.68;3.10;;;11.50;99.90;;;;;;4889490;29;20035;-92
2023/04/14 04:33:14;;;;;;;7.40;2.75;;;11.40;99.90;;;;;;4889291;29;20028;-93
2023/04/14 04:35:42;;;;;;;7.40;2.42;;;11.50;99.90;;;;;;4904766;29;20032;-92
2023/04/14 04:38:10;;;;;;;8.30;2.78;;;11.40;99.90;;;;;;4889641;29;20099;-93
2023/04/14 04:40:39;;;;;;;9.13;2.67;;;11.30;99.90;;;;;;4889086;29;20036;-92
2023/04/14 04:43:12;;;;;;;4.90;2.50;;;11.20;99.90;;;;;;4909373;29;20036;-92
2023/04/14 04:46:07;;;;;;;7.45;2.83;;;11.20;99.90;;;;;;4893576;29;20051;-92
2023/04/14 04:48:34;;;;;;;13.60;2.55;;;11.20;99.90;;;;;;4904797;29;20057;-91
2023/04/14 04:51:01;;;;;;;8.88;2.50;;;11.30;99.90;;;;;;4904734;29;20478;-90
2023/04/14 04:53:27;;;;;;;5.72;2.47;;;11.20;99.90;;;;;;4887207;29;20063;-93
2023/04/14 04:55:55;;;;;;;5.20;2.50;;;11.10;99.90;;;;;;4885556;29;20050;-91
2023/04/14 04:58:21;;;;;;;8.10;2.70;;;11.00;99.90;;;;;;4885372;29;20032;-91
2023/04/14 05:00:48;;;;;;;12.43;2.72;;;11.00;99.90;;;;;;4885387;29;20592;-90
2023/04/14 05:03:15;;;;;;;9.65;3.03;;;11.00;99.90;;;;;;4885458;29;20056;-91
2023/04/14 05:05:42;;;;;;;7.60;3.20;;;11.00;99.90;;;;;;4885798;29;20127;-91
2023/04/14 05:08:08;;;;;;;9.63;3.97;;;11.10;99.90;;;;;;4956058;23;20050;-91
2023/04/14 05:10:35;;;;;;;14.93;3.53;;;11.50;99.90;;;;;;4964515;28;20118;-91
2023/04/14 05:13:08;;;;;;;11.07;2.60;;;11.90;99.90;;;;;;4947830;28;20046;-92
2023/04/14 05:16:06;;;;;;;8.45;3.03;;;12.60;99.90;;;;;;4945632;28;20027;-91
2023/04/14 05:18:53;;;;;;;8.98;4.40;;;14.30;99.90;;;;;;4868140;29;20033;-92
2023/04/14 05:21:20;;;;;;;8.45;7.50;;;15.70;99.90;;;;;;4874855;29;20153;-93
2023/04/14 05:23:47;;;;;;;13.43;12.32;;;17.00;99.90;;;;;;4883981;29;20032;-93
2023/04/14 05:26:15;;;;;;;15.30;13.95;;;18.00;99.90;;;;;;4868998;29;20055;-94
2023/04/14 05:28:42;;;;;;;15.38;14.23;;;18.30;99.90;;;;;;4869074;29;20044;-91
2023/04/14 05:31:09;;;;;;;17.17;15.65;;;18.90;99.90;;;;;;4868811;29;20029;-94
2023/04/14 05:33:35;;;;;;;17.48;16.23;;;19.40;99.90;;;;;;4868786;29;20391;-92
2023/04/14 05:36:02;;;;;;;18.40;16.85;;;19.80;99.90;;;;;;4868927;29;20035;-92
2023/04/14 05:38:29;;;;;;;19.40;17.30;;;19.90;99.90;;;;;;4868844;29;20041;-92
2023/04/14 05:40:55;;;;;;;19.08;17.77;;;20.40;99.90;;;;;;4868957;29;20064;-93
2023/04/14 05:43:21;;;;;;;19.52;18.08;;;21.00;99.90;;;;;;4869121;29;20056;-93
2023/04/14 05:45:48;;;;;;;19.58;17.88;;;21.20;99.90;;;;;;4868503;29;20497;-91
2023/04/14 05:48:16;;;;;;;20.50;18.50;;;21.30;99.90;;;;;;4868409;29;20032;-91
2023/04/14 05:50:43;;;;;;;20.67;18.05;;;21.50;99.90;;;;;;4933083;28;20039;-94
2023/04/14 05:53:10;;;;;;;19.30;17.70;;;21.70;99.90;;;;;;4944547;28;20142;-93
2023/04/14 05:55:40;;;;;;;20.08;18.35;;;21.70;99.90;;;;;;4944495;28;20042;-92
2023/04/14 05:58:06;;;;;;;20.92;18.70;;;21.60;99.90;;;;;;4944931;28;20074;-92
2023/04/14 06:00:33;;;;;;;19.65;18.00;;;21.10;99.90;;;;;;4944478;28;20058;-92
2023/04/14 06:02:59;;;;;;;20.17;18.20;;;21.10;99.90;;;;;;4944604;28;20034;-91
2023/04/14 06:05:26;;;;;;;19.85;18.08;;;21.40;99.90;;;;;;4944498;28;20089;-92
2023/04/14 06:07:53;;;;;;;21.92;18.45;;;21.70;99.90;;;;;;4944162;28;20444;-92
2023/04/14 06:10:19;;;;;;;21.02;18.83;;;22.00;99.90;;;;;;4944253;28;20031;-91
2023/04/14 06:12:46;;;;;;;21.40;19.42;;;22.20;99.90;;;;;;4944428;28;20491;-92
2023/04/14 06:15:12;;;;;;;21.38;19.15;;;22.10;99.90;;;;;;4944091;28;20198;-92
2023/04/14 06:17:39;;;;;;;21.38;19.30;;;21.80;99.90;;;;;;4944040;28;20062;-92
2023/04/14 06:20:07;;;;;;;21.38;19.30;;;21.80;99.90;;;;;;4944201;28;20499;-92
2023/04/14 06:22:33;;;;;;;20.83;18.95;;;22.10;99.90;;;;;;4943905;28;20185;-91
2023/04/14 06:25:00;;;;;;;20.30;18.70;;;22.30;99.90;;;;;;4944364;28;20038;-92
2023/04/14 06:27:30;;;;;;;20.15;18.52;;;21.80;99.90;;;;;;4944348;28;20023;-91
2023/04/14 06:29:58;;;;;;;21.73;19.42;;;21.50;99.90;;;;;;4943790;28;20035;-93
2023/04/14 08:35:52;;;;;;;22.95;21.13;;;21.30;99.90;;;;;;5828005;23;20043;-92
2023/04/14 08:38:19;;;;;;;23.98;21.45;;;21.40;99.90;;;;;;4906357;29;20060;-91
2023/04/14 08:40:52;;;;;;;21.73;20.33;;;21.30;99.90;;;;;;4904037;29;20374;-91
2023/04/14 11:49:46;;;;;;;24.75;22.65;;;20.50;99.90;;;;;;4954398;28;20097;-93
2023/04/14 11:52:12;;;;;;;23.48;21.85;;;20.50;99.90;;;;;;4951652;28;20039;-91
2023/04/14 11:54:39;;;;;;;23.77;21.90;;;20.60;99.90;;;;;;4944991;28;20026;-92
2023/04/14 11:57:13;;;;;;;24.60;23.00;;;20.20;99.90;;;;;;4942451;28;20037;-92
2023/04/14 11:59:42;;;;;;;25.00;23.40;;;20.30;99.90;;;;;;4923445;29;20031;-92
2023/04/14 12:02:16;;;;;;;24.88;23.10;;;20.40;99.90;;;;;;4923621;29;20118;-93
2023/04/14 12:04:44;;;;;;;25.13;23.52;;;20.60;99.90;;;;;;4939865;29;20036;-91
2023/04/14 12:07:13;;;;;;;25.23;23.45;;;20.80;99.90;;;;;;4923141;29;20035;-91
2023/04/14 12:09:43;;;;;;;25.20;23.27;;;20.70;99.90;;;;;;4923879;29;20055;-90
2023/04/14 12:12:11;;;;;;;24.80;23.02;;;20.50;99.90;;;;;;4939222;29;20082;-89
2023/04/14 12:14:46;;;;;;;24.60;22.58;;;20.60;99.90;;;;;;4923270;29;20039;-90
2023/04/14 12:17:16;;;;;;;24.73;22.85;;;20.30;99.90;;;;;;4923001;29;20503;-92
2023/04/14 12:19:44;;;;;;;25.33;23.10;;;20.10;99.90;;;;;;4939595;29;20038;-92
2023/04/14 12:22:10;;;;;;;25.20;23.33;;;19.70;99.90;;;;;;4939297;29;20027;-91
2023/04/14 12:24:38;;;;;;;24.70;23.10;;;19.60;99.90;;;;;;4923197;29;20027;-91
2023/04/14 12:27:08;;;;;;;24.05;22.45;;;19.70;99.90;;;;;;4938947;29;20035;-92
2023/04/14 12:29:35;;;;;;;24.52;22.88;;;19.70;99.90;;;;;;4923028;29;20023;-90
2023/04/14 12:32:09;;;;;;;24.05;22.40;;;19.80;99.90;;;;;;4942391;29;20039;-90
2023/04/14 12:34:35;;;;;;;23.83;22.33;;;19.90;99.90;;;;;;4942436;29;20436;-90
2023/04/14 12:37:09;;;;;;;24.02;22.23;;;20.10;99.90;;;;;;4926983;29;20032;-90
2023/04/14 12:39:56;;;;;;;23.52;22.02;;;20.00;99.90;;;;;;4926817;29;20038;-92
2023/04/14 12:42:23;;;;;;;23.70;22.00;;;19.80;99.90;;;;;;4928074;29;20070;-91
2023/04/14 12:44:59;;;;;;;22.23;20.65;;;19.70;99.90;;;;;;4926695;29;20031;-93
2023/04/14 12:47:33;;;;;;;22.00;20.40;;;19.60;99.90;;;;;;4942849;29;20106;-91
2023/04/14 12:50:01;;;;;;;22.15;20.25;;;19.50;99.90;;;;;;4927814;29;20035;-93
2023/04/14 12:52:37;;;;;;;21.67;19.95;;;19.30;99.90;;;;;;4926716;29;20023;-92
2023/04/14 12:55:05;;;;;;;21.80;20.10;;;19.50;99.90;;;;;;4926738;29;20035;-93
2023/04/14 12:57:32;;;;;;;21.80;20.08;;;19.60;99.90;;;;;;4926263;29;20034;-92
2023/04/14 13:00:00;;;;;;;21.75;20.20;;;19.50;99.90;;;;;;4926317;29;20369;-91
2023/04/14 13:02:30;;;;;;;21.38;19.85;;;19.60;99.90;;;;;;4926812;29;20039;-91
2023/04/14 13:04:57;;;;;;;20.67;19.48;;;19.60;99.90;;;;;;4942626;29;20089;-92
2023/04/14 13:07:24;;;;;;;21.00;19.67;;;19.40;99.90;;;;;;4941826;29;20024;-90
2023/04/14 13:09:51;;;;;;;21.40;19.70;;;19.30;99.90;;;;;;4942402;29;20042;-91
2023/04/14 13:12:18;;;;;;;20.80;19.48;;;19.20;99.90;;;;;;4927634;29;20051;-90
2023/04/14 13:14:45;;;;;;;20.90;19.48;;;19.20;99.90;;;;;;4958153;29;20035;-90
2023/04/14 13:17:11;;;;;;;22.00;20.15;;;19.20;99.90;;;;;;4945640;29;20028;-90
2023/04/14 14:07:57;;;;;;;20.90;19.50;;;18.50;99.90;;;;;;6094611;23;20161;31
2023/04/14 14:10:23;;;;;;;20.58;19.02;;;18.50;99.90;;;;;;4884038;29;20045;-90
2023/04/14 14:12:50;;;;;;;20.42;19.05;;;18.60;99.90;;;;;;4884301;29;20173;-91
2023/04/14 14:15:17;;;;;;;21.00;19.08;;;18.70;99.90;;;;;;4884360;29;20111;-92
2023/04/14 14:17:43;;;;;;;21.05;19.25;;;18.80;99.90;;;;;;4903648;29;20032;-90
2023/04/14 14:20:10;;;;;;;20.80;19.10;;;18.70;99.90;;;;;;4884780;29;20033;-91
2023/04/14 14:22:36;;;;;;;20.35;18.83;;;18.60;99.90;;;;;;4884486;29;20024;-90
2023/04/14 14:25:03;;;;;;;21.23;19.30;;;18.60;99.90;;;;;;4868581;29;20119;-89
2023/04/14 14:27:31;;;;;;;21.15;18.92;;;18.60;99.90;;;;;;4884726;29;20039;-91
2023/04/14 14:29:57;;;;;;;19.60;18.00;;;18.70;99.90;;;;;;4883834;29;20092;-91
2023/04/14 14:32:24;;;;;;;19.88;18.52;;;18.70;99.90;;;;;;4883899;29;20033;-90
2023/04/14 14:34:50;;;;;;;19.90;18.35;;;18.70;99.90;;;;;;4902573;29;20123;-92
2023/04/14 14:37:17;;;;;;;20.00;18.60;;;18.50;99.90;;;;;;4876151;29;20058;-93
2023/04/14 14:39:44;;;;;;;19.42;18.23;;;18.50;99.90;;;;;;4866551;29;20490;-91
2023/04/14 14:42:10;;;;;;;19.77;18.48;;;18.50;99.90;;;;;;4901357;29;20036;-91
2023/04/14 14:44:37;;;;;;;19.20;18.10;;;18.40;99.90;;;;;;4884272;29;20533;-91
2023/04/14 14:47:05;;;;;;;20.15;18.55;;;18.30;99.90;;;;;;4884071;29;20414;-90
2023/04/14 14:49:31;;;;;;;19.88;18.58;;;18.10;99.90;;;;;;4898996;29;20168;-89
2023/04/14 14:51:58;;;;;;;19.83;18.33;;;18.20;99.90;;;;;;4883870;29;20070;-91
2023/04/14 14:54:24;;;;;;;20.23;18.40;;;18.10;99.90;;;;;;4867437;29;20024;-89
2023/04/14 14:56:51;;;;;;;19.83;18.48;;;18.00;99.90;;;;;;4868005;29;20033;-91
2023/04/14 14:59:23;;;;;;;19.35;18.13;;;17.80;99.90;;;;;;4871192;29;20029;-93
2023/04/14 15:01:49;;;;;;;19.83;18.35;;;17.50;99.90;;;;;;4883404;29;20033;-92
2023/04/14 15:04:16;;;;;;;19.25;18.00;;;17.30;99.90;;;;;;4898994;29;20027;-89
2023/04/14 15:06:42;;;;;;;18.90;17.65;;;17.30;99.90;;;;;;4898747;29;20037;-93
2023/04/14 15:09:09;;;;;;;19.27;17.83;;;17.40;99.90;;;;;;4908288;29;20048;-95
2023/04/14 15:11:36;;;;;;;19.33;17.90;;;17.50;99.90;;;;;;4917613;29;20126;-91
2023/04/14 15:14:02;;;;;;;20.13;18.50;;;17.60;99.90;;;;;;4902049;29;20032;-91
2023/04/14 15:16:29;;;;;;;19.48;18.05;;;17.50;99.90;;;;;;4917555;29;20066;-93
2023/04/14 15:18:56;;;;;;;20.02;18.73;;;17.40;99.90;;;;;;4917689;29;20028;-93
2023/04/14 15:21:22;;;;;;;20.30;18.80;;;17.20;99.90;;;;;;4918506;29;20036;-92
2023/04/14 15:23:49;;;;;;;20.17;18.63;;;17.10;99.90;;;;;;4917457;29;20024;-93
2023/04/14 15:26:16;;;;;;;19.90;18.48;;;17.00;99.90;;;;;;4917480;29;20084;-92
2023/04/14 15:28:46;;;;;;;19.55;18.20;;;16.90;99.90;;;;;;4917515;29;20035;-92
2023/04/14 15:31:14;;;;;;;19.23;18.10;;;17.00;99.90;;;;;;4901912;29;20067;-94
2023/04/14 15:33:42;;;;;;;18.65;17.55;;;17.00;99.90;;;;;;4917301;29;20032;-92
2023/04/14 15:36:09;;;;;;;19.70;18.10;;;16.90;99.90;;;;;;4917249;29;20047;-93
2023/04/14 15:38:35;;;;;;;19.00;17.48;;;16.90;99.90;;;;;;4917409;29;20031;-91
2023/04/14 15:41:01;;;;;;;19.42;17.88;;;17.10;99.90;;;;;;4917212;29;20056;-93
2023/04/14 15:43:28;;;;;;;19.33;17.85;;;17.00;99.90;;;;;;4917061;29;20112;-91
2023/04/14 15:45:55;;;;;;;18.83;17.65;;;17.00;99.90;;;;;;4870628;29;20042;-91
2023/04/14 15:48:21;;;;;;;18.50;17.30;;;17.30;99.90;;;;;;4916967;29;20024;-90
2023/04/14 15:50:48;;;;;;;18.70;17.27;;;17.40;99.90;;;;;;4917192;29;20519;-90
2023/04/14 15:53:15;;;;;;;19.20;18.00;;;17.40;99.90;;;;;;4917486;29;20035;-93
2023/04/14 15:55:43;;;;;;;18.85;17.63;;;17.50;99.90;;;;;;4902300;29;20398;-94
2023/04/14 15:58:09;;;;;;;19.35;17.98;;;17.40;99.90;;;;;;4916939;29;20032;-91
2023/04/14 16:00:36;;;;;;;20.00;18.30;;;17.30;99.90;;;;;;4916904;29;20033;-91
2023/04/14 16:03:03;;;;;;;19.45;18.05;;;17.30;99.90;;;;;;4917259;29;20032;-94
2023/04/14 16:05:29;;;;;;;19.23;17.88;;;17.10;99.90;;;;;;4918233;29;20051;-91
2023/04/14 16:07:55;;;;;;;19.50;17.92;;;17.00;99.90;;;;;;4899629;29;20702;-90
2023/04/14 16:10:22;;;;;;;19.27;18.08;;;16.90;99.90;;;;;;4897666;29;20040;-90
2023/04/14 16:12:49;;;;;;;19.33;17.70;;;16.80;99.90;;;;;;4906839;29;20481;-94
2023/04/14 16:15:33;;;;;;;19.83;18.10;;;16.70;99.90;;;;;;4885789;29;20040;-92
2023/04/14 16:18:00;;;;;;;19.17;17.80;;;16.50;99.90;;;;;;4885491;29;20055;-93
2023/04/14 16:20:27;;;;;;;19.13;17.67;;;16.50;99.90;;;;;;4901828;29;20051;-93
2023/04/14 16:22:53;;;;;;;18.45;16.85;;;16.40;99.90;;;;;;4901116;29;20103;-91
2023/04/14 16:25:23;;;;;;;18.40;17.08;;;16.40;99.90;;;;;;4901139;29;20028;-92
2023/04/14 16:27:49;;;;;;;18.15;16.70;;;16.30;99.90;;;;;;4885167;29;20115;-92
2023/04/14 16:30:16;;;;;;;18.25;16.80;;;16.20;99.90;;;;;;4900775;29;20501;-91
2023/04/14 16:32:42;;;;;;;18.50;17.13;;;16.10;99.90;;;;;;4885425;29;20053;-92
2023/04/14 16:35:10;;;;;;;17.83;16.48;;;15.90;99.90;;;;;;4917061;29;20043;-90
2023/04/14 16:37:37;;;;;;;18.05;16.45;;;15.80;99.90;;;;;;4885623;29;20028;-90
2023/04/14 16:40:05;;;;;;;19.05;17.35;;;15.70;99.90;;;;;;4900794;29;20033;-89
2023/04/14 16:42:32;;;;;;;19.25;17.58;;;15.60;99.90;;;;;;4881846;29;20029;-92
2023/04/14 16:44:59;;;;;;;19.45;17.73;;;15.50;99.90;;;;;;4913334;29;20104;-90
2023/04/14 16:47:26;;;;;;;19.63;17.92;;;15.40;99.90;;;;;;4898149;29;20435;-91
2023/04/14 16:49:52;;;;;;;19.45;17.70;;;15.30;99.90;;;;;;4913153;29;20037;-90
2023/04/14 16:52:19;;;;;;;18.80;17.10;;;15.20;99.90;;;;;;4897824;29;20065;-93
2023/04/14 16:54:46;;;;;;;17.55;16.30;;;15.20;99.90;;;;;;4897655;29;20119;-90
2023/04/14 16:57:12;;;;;;;18.33;16.63;;;15.10;99.90;;;;;;4897715;29;20044;-91
2023/04/14 16:59:39;;;;;;;17.25;16.05;;;15.00;99.90;;;;;;4914240;29;20033;-93
2023/04/14 17:02:06;;;;;;;17.23;15.98;;;14.90;99.90;;;;;;4897563;29;20072;-91
2023/04/14 17:04:33;;;;;;;17.67;16.38;;;14.90;99.90;;;;;;4913429;29;20088;-90
2023/04/14 17:07:00;;;;;;;18.15;16.38;;;14.90;99.90;;;;;;4897477;29;20494;-93
2023/04/14 17:09:27;;;;;;;17.80;16.45;;;14.80;99.90;;;;;;4900105;29;20048;-92
2023/04/14 17:11:53;;;;;;;17.83;16.27;;;14.70;99.90;;;;;;4885325;29;20028;-90
2023/04/14 17:14:22;;;;;;;18.10;16.60;;;14.70;99.90;;;;;;4885385;29;20032;-91
2023/04/14 17:16:48;;;;;;;18.35;16.63;;;14.60;99.90;;;;;;4886668;29;20071;-90
2023/04/14 17:19:15;;;;;;;17.77;16.33;;;14.60;99.90;;;;;;4904213;29;20032;-91
2023/04/14 17:21:45;;;;;;;18.58;16.83;;;14.60;99.90;;;;;;4888385;29;20168;-94
2023/04/14 17:24:12;;;;;;;18.35;16.70;;;14.50;99.90;;;;;;4919630;29;20066;-92
2023/04/14 17:26:40;;;;;;;18.08;16.77;;;14.50;99.90;;;;;;4903921;29;20024;-91
2023/04/14 17:29:08;;;;;;;18.02;16.77;;;14.40;99.90;;;;;;4904018;29;20032;-92
2023/04/14 17:31:36;;;;;;;18.48;16.70;;;14.30;99.90;;;;;;4888623;29;20561;-91
2023/04/14 17:34:09;;;;;;;18.33;16.90;;;14.30;99.90;;;;;;4903960;29;20439;-90
2023/04/14 17:36:36;;;;;;;20.77;17.43;;;14.20;99.90;;;;;;4904045;29;20040;-91
2023/04/14 17:39:02;;;;;;;19.20;17.33;;;14.20;99.90;;;;;;4904197;29;20031;-91
2023/04/14 17:41:29;;;;;;;19.17;17.55;;;14.10;99.90;;;;;;4903870;29;20032;-90
2023/04/14 17:43:56;;;;;;;19.02;17.60;;;14.10;99.90;;;;;;4888216;29;20028;-90
2023/04/14 17:46:32;;;;;;;20.25;18.40;;;14.00;99.90;;;;;;4903830;29;20035;-91
2023/04/14 17:49:02;;;;;;;22.05;19.80;;;13.90;99.90;;;;;;4904207;29;20036;-91
2023/04/14 17:51:33;;;;;;;23.05;21.02;;;13.90;99.90;;;;;;4904349;29;20024;-92
2023/04/14 17:54:00;;;;;;;24.50;21.88;;;13.80;99.90;;;;;;4892899;29;20071;-90
2023/04/14 17:56:27;;;;;;;22.40;20.50;;;13.80;99.90;;;;;;4888126;29;20563;-92
2023/04/14 17:58:57;;;;;;;21.77;19.83;;;13.70;99.90;;;;;;4887913;29;20035;-90
2023/04/14 18:01:24;;;;;;;21.42;19.67;;;13.60;99.90;;;;;;4887800;29;20083;-90
2023/04/14 18:03:51;;;;;;;24.60;22.27;;;13.50;99.90;;;;;;4903500;29;20057;-92
2023/04/14 18:06:18;;;;;;;23.48;21.20;;;13.40;99.90;;;;;;4896270;29;20032;-91
2023/04/14 18:08:44;;;;;;;21.45;19.55;;;13.20;99.90;;;;;;4903764;29;20053;-89
2023/04/14 18:11:11;;;;;;;21.92;19.80;;;13.10;99.90;;;;;;4922015;29;20064;-91
2023/04/14 18:13:38;;;;;;;20.95;18.95;;;12.90;99.90;;;;;;4918105;29;20153;-91
2023/04/14 18:16:05;;;;;;;20.40;18.80;;;12.90;99.90;;;;;;4900015;29;20032;-90
2023/04/14 18:18:31;;;;;;;19.33;17.90;;;12.80;99.90;;;;;;4915510;29;20036;-91
2023/04/14 18:21:00;;;;;;;19.58;17.95;;;12.70;99.90;;;;;;4854402;29;20036;-90
2023/04/14 18:23:27;;;;;;;18.73;17.25;;;12.70;99.90;;;;;;4915924;29;20125;-90
2023/04/14 18:26:03;;;;;;;18.85;17.30;;;12.50;99.90;;;;;;4899914;29;20035;-91
2023/04/14 18:28:30;;;;;;;19.90;18.15;;;12.40;99.90;;;;;;4917070;29;20059;-90
2023/04/14 18:31:00;;;;;;;19.58;17.95;;;12.40;99.90;;;;;;4902304;29;20068;-92
2023/04/14 18:33:28;;;;;;;21.38;19.40;;;12.30;99.90;;;;;;4917912;29;20494;-90
2023/04/14 18:35:57;;;;;;;21.88;19.77;;;12.20;99.90;;;;;;4899203;29;20115;-92
2023/04/14 18:38:26;;;;;;;22.20;20.48;;;12.10;99.90;;;;;;4899153;29;20037;-92
2023/04/14 18:41:02;;;;;;;23.40;21.20;;;12.10;99.90;;;;;;4898827;29;20092;-93
2023/04/14 18:43:29;;;;;;;25.70;22.85;;;12.00;99.90;;;;;;4883304;29;20041;-92
2023/04/14 18:45:56;;;;;;;22.08;20.13;;;11.90;99.90;;;;;;4867769;29;20386;-92